Terminal Aerodrome Forecast
Issued by NWS Brownsville, TX

Home | Current Version | Previous Version | Text Only | Print | Product List | Glossary On
Versions: 1 2 3 4 5 6 7 8 9 10 11 12 13 14 15 16 17 18 19 20 21 22 23 24 25 26 27
000
FTUS44 KBRO 011513 AAC
TAFMFE
TAF AMD
KMFE 011513Z 0115/0212 12011KT 5SM HZ BKN015 BKN025
     FM020000 14014KT P6SM SCT030
     FM020600 13011KT P6SM OVC015=

USA.gov is the U.S. government's official web portal to all federal, state and local government web resources and services.